createdAt,value
2018-03-08T00:00:55.682Z,3.78
2018-03-08T00:03:24.010Z,3.89
2018-03-08T00:05:52.321Z,3.90
2018-03-08T00:08:20.738Z,3.74
2018-03-08T00:10:49.100Z,3.71
2018-03-08T00:13:17.488Z,3.69
2018-03-08T00:15:45.756Z,3.72
2018-03-08T00:18:14.141Z,3.74
2018-03-08T00:20:42.456Z,3.74
2018-03-08T00:23:10.881Z,3.74
2018-03-08T00:25:39.195Z,3.75
2018-03-08T00:28:07.531Z,3.67
2018-03-08T00:30:36.011Z,3.76
2018-03-08T00:33:04.457Z,3.79
2018-03-08T00:35:32.807Z,3.70
2018-03-08T00:38:01.198Z,3.70
2018-03-08T00:40:29.490Z,3.79
2018-03-08T00:42:57.826Z,3.72
2018-03-08T00:45:26.174Z,3.76
2018-03-08T00:47:54.524Z,3.80
2018-03-08T00:50:22.818Z,3.84
2018-03-08T00:52:51.221Z,3.88
2018-03-08T00:55:19.606Z,3.93
2018-03-08T00:57:47.922Z,3.91
2018-03-08T01:00:16.256Z,3.94
2018-03-08T01:02:44.557Z,3.96
2018-03-08T01:05:12.887Z,3.96
2018-03-08T01:07:41.291Z,3.94
2018-03-08T01:10:09.667Z,4.00
2018-03-08T01:12:37.966Z,4.05
2018-03-08T01:15:06.321Z,4.07
2018-03-08T01:17:34.631Z,4.08
2018-03-08T01:20:02.955Z,4.07
2018-03-08T01:22:31.376Z,4.14
2018-03-08T01:24:59.732Z,4.12
2018-03-08T01:27:28.107Z,4.10
2018-03-08T01:29:56.449Z,4.12
2018-03-08T01:32:24.857Z,4.15
2018-03-08T01:34:53.234Z,4.11
2018-03-08T01:37:21.624Z,4.19
2018-03-08T01:39:49.953Z,4.18
2018-03-08T01:42:18.261Z,4.22
2018-03-08T01:44:46.603Z,4.20
2018-03-08T01:47:14.943Z,4.22
2018-03-08T01:49:43.314Z,4.19
2018-03-08T01:52:11.606Z,4.21
2018-03-08T01:54:39.934Z,4.21
2018-03-08T01:57:08.325Z,4.19
2018-03-08T01:59:36.739Z,4.20
2018-03-08T02:02:05.066Z,4.16
2018-03-08T02:04:33.374Z,4.16
2018-03-08T02:07:01.750Z,4.14
2018-03-08T02:09:30.138Z,4.13
2018-03-08T02:11:58.466Z,4.13
2018-03-08T02:14:26.763Z,4.17
2018-03-08T02:16:55.184Z,4.07
2018-03-08T02:19:23.508Z,4.05
2018-03-08T02:21:51.823Z,4.09
2018-03-08T02:24:20.135Z,4.05
2018-03-08T02:26:48.467Z,4.02
2018-03-08T02:29:16.759Z,4.03
2018-03-08T02:31:45.139Z,3.99
2018-03-08T02:34:13.454Z,3.94
2018-03-08T02:36:41.900Z,3.93
2018-03-08T02:39:10.207Z,3.82
2018-03-08T02:41:38.642Z,3.84
2018-03-08T02:44:06.948Z,3.78
2018-03-08T02:46:35.272Z,3.86
2018-03-08T02:49:03.586Z,3.84
2018-03-08T02:51:31.914Z,3.84
2018-03-08T02:54:00.219Z,3.80
2018-03-08T02:56:28.528Z,3.79
2018-03-08T02:58:56.872Z,3.80
2018-03-08T03:01:25.265Z,3.79
2018-03-08T03:03:53.600Z,3.84
2018-03-08T03:06:21.910Z,3.84
2018-03-08T03:08:50.306Z,3.83
2018-03-08T03:11:18.610Z,3.84
2018-03-08T03:13:47.126Z,3.81
2018-03-08T03:16:15.423Z,3.89
2018-03-08T03:18:43.798Z,3.88
2018-03-08T03:21:12.186Z,3.89
2018-03-08T03:23:40.514Z,3.87
2018-03-08T03:26:08.827Z,3.94
2018-03-08T03:28:37.216Z,3.85
2018-03-08T03:31:05.517Z,3.87
2018-03-08T03:33:33.876Z,3.88
2018-03-08T03:36:02.168Z,3.88
2018-03-08T03:38:30.516Z,3.89
2018-03-08T03:40:58.819Z,3.84
2018-03-08T03:43:27.152Z,3.92
2018-03-08T03:45:55.479Z,3.95
2018-03-08T03:48:23.819Z,3.91
2018-03-08T03:50:52.132Z,3.91
2018-03-08T03:53:20.463Z,3.91
2018-03-08T03:55:48.777Z,3.88
2018-03-08T03:58:17.137Z,3.90
2018-03-08T04:00:45.516Z,3.85
2018-03-08T04:03:13.823Z,3.92
2018-03-08T04:05:42.164Z,3.89
2018-03-08T04:08:10.549Z,3.83
2018-03-08T04:10:38.882Z,3.89
2018-03-08T04:13:07.185Z,3.90
2018-03-08T04:15:35.585Z,3.85
2018-03-08T04:18:04.176Z,3.86
2018-03-08T04:20:32.547Z,3.82
2018-03-08T04:23:00.940Z,3.81
2018-03-08T04:25:29.255Z,3.78
2018-03-08T04:27:57.551Z,3.74
2018-03-08T04:30:25.880Z,3.62
2018-03-08T04:32:54.191Z,3.63
2018-03-08T04:35:22.526Z,3.63
2018-03-08T04:37:50.831Z,3.59
2018-03-08T04:40:19.161Z,3.53
2018-03-08T04:42:47.474Z,3.63
2018-03-08T04:45:15.814Z,3.50
2018-03-08T04:47:44.136Z,3.47
2018-03-08T04:50:12.476Z,3.47
2018-03-08T04:52:40.791Z,3.52
2018-03-08T04:55:09.102Z,3.53
2018-03-08T04:57:37.437Z,3.64
2018-03-08T05:00:05.739Z,3.59
2018-03-08T05:02:34.067Z,3.53
2018-03-08T05:05:02.375Z,3.56
2018-03-08T05:07:30.699Z,3.52
2018-03-08T05:09:59.009Z,3.50
2018-03-08T05:12:27.343Z,3.42
2018-03-08T05:14:55.764Z,3.56
2018-03-08T05:17:24.130Z,3.61
2018-03-08T05:19:52.482Z,3.55
2018-03-08T05:22:20.812Z,3.52
2018-03-08T05:24:49.138Z,3.53
2018-03-08T05:27:18.096Z,3.57
2018-03-08T05:29:46.404Z,3.61
2018-03-08T05:32:14.740Z,3.64
2018-03-08T05:34:43.052Z,3.58
2018-03-08T05:37:11.382Z,3.61
2018-03-08T05:39:39.681Z,3.58
2018-03-08T05:42:08.025Z,3.62
2018-03-08T05:44:36.340Z,3.64
2018-03-08T05:47:04.680Z,3.59
2018-03-08T05:49:32.974Z,3.59
2018-03-08T05:52:01.416Z,3.64
2018-03-08T05:54:29.793Z,3.62
2018-03-08T05:56:58.098Z,3.63
2018-03-08T05:59:26.422Z,3.56
2018-03-08T06:01:54.822Z,3.60
2018-03-08T06:04:23.157Z,3.66
2018-03-08T06:06:51.462Z,3.72
2018-03-08T06:09:19.794Z,3.76
2018-03-08T06:11:48.089Z,3.80
2018-03-08T06:14:16.527Z,3.77
2018-03-08T06:16:44.861Z,3.76
2018-03-08T06:19:13.190Z,3.81
2018-03-08T06:21:41.557Z,3.88
2018-03-08T06:24:09.938Z,3.82
2018-03-08T06:26:38.243Z,3.77
2018-03-08T06:29:06.703Z,3.73
2018-03-08T06:31:35.069Z,3.69
2018-03-08T06:34:03.443Z,3.68
2018-03-08T06:36:31.782Z,3.72
2018-03-08T06:39:00.171Z,3.68
2018-03-08T06:41:28.426Z,3.70
2018-03-08T06:43:56.850Z,3.60
2018-03-08T06:46:25.161Z,3.62
2018-03-08T06:48:53.605Z,3.66
2018-03-08T06:51:21.910Z,3.73
2018-03-08T06:53:50.224Z,3.77
2018-03-08T06:56:18.564Z,3.81
2018-03-08T06:58:46.883Z,3.80
2018-03-08T07:01:15.222Z,3.91
2018-03-08T07:03:43.575Z,3.87
2018-03-08T07:06:11.907Z,3.87
2018-03-08T07:08:40.207Z,3.90
2018-03-08T07:11:08.611Z,3.99
2018-03-08T07:13:36.915Z,4.04
2018-03-08T07:16:05.316Z,3.97
2018-03-08T07:18:33.571Z,3.95
2018-03-08T07:21:01.901Z,4.04
2018-03-08T07:23:30.215Z,4.04
2018-03-08T07:25:58.578Z,4.12
2018-03-08T07:28:26.982Z,4.18
2018-03-08T07:30:55.364Z,4.31
2018-03-08T07:33:23.662Z,4.23
2018-03-08T07:35:52.088Z,4.34
2018-03-08T07:38:20.488Z,4.42
2018-03-08T07:40:48.829Z,4.38
2018-03-08T07:43:17.316Z,4.49
2018-03-08T07:45:45.704Z,4.43
2018-03-08T07:48:14.000Z,4.58
2018-03-08T07:50:42.367Z,4.50
2018-03-08T07:53:10.683Z,4.63
2018-03-08T07:55:38.985Z,4.68
2018-03-08T07:58:07.319Z,4.61
2018-03-08T08:00:35.663Z,4.79
2018-03-08T08:03:03.999Z,4.69
2018-03-08T08:05:44.077Z,4.75
2018-03-08T08:08:24.118Z,4.88
2018-03-08T08:10:52.458Z,4.91
2018-03-08T08:13:20.795Z,4.97
2018-03-08T08:15:49.186Z,5.06
2018-03-08T08:18:17.800Z,5.12
2018-03-08T08:20:46.091Z,5.06
2018-03-08T08:23:14.414Z,5.12
2018-03-08T08:25:42.719Z,5.13
2018-03-08T08:28:11.055Z,5.23
2018-03-08T08:30:39.359Z,5.23
2018-03-08T08:33:07.795Z,5.38
2018-03-08T08:35:36.089Z,5.44
2018-03-08T08:38:04.435Z,5.58
2018-03-08T08:40:32.791Z,5.58
2018-03-08T08:43:01.140Z,5.65
2018-03-08T08:45:29.504Z,5.59
2018-03-08T08:47:57.872Z,5.74
2018-03-08T08:50:26.161Z,5.81
2018-03-08T08:52:54.506Z,5.90
2018-03-08T08:55:22.834Z,5.99
2018-03-08T08:57:51.199Z,6.14
2018-03-08T09:00:19.560Z,6.25
2018-03-08T09:02:47.928Z,6.16
2018-03-08T09:05:16.327Z,6.25
2018-03-08T09:07:44.715Z,6.24
2018-03-08T09:10:13.137Z,6.36
2018-03-08T09:12:41.423Z,6.40
2018-03-08T09:15:09.775Z,6.52
2018-03-08T09:17:38.094Z,6.58
2018-03-08T09:20:06.498Z,6.55
2018-03-08T09:22:34.882Z,6.65
2018-03-08T09:25:03.215Z,6.65
2018-03-08T09:27:31.543Z,6.93
2018-03-08T09:29:59.916Z,6.97
2018-03-08T09:32:28.225Z,7.19
2018-03-08T09:34:56.557Z,7.05
2018-03-08T09:37:24.949Z,7.03
2018-03-08T09:39:53.371Z,7.11
2018-03-08T09:42:21.684Z,7.20
2018-03-08T09:44:50.081Z,6.92
2018-03-08T09:47:18.984Z,7.04
2018-03-08T09:49:47.323Z,7.09
2018-03-08T09:52:15.644Z,7.14
2018-03-08T09:54:44.013Z,7.17
2018-03-08T09:57:12.379Z,7.25
2018-03-08T09:59:40.685Z,7.40
2018-03-08T10:02:09.024Z,7.39
2018-03-08T10:04:37.431Z,7.54
2018-03-08T10:07:05.894Z,7.86
2018-03-08T10:09:34.194Z,8.49
2018-03-08T10:12:02.543Z,8.39
2018-03-08T10:14:30.860Z,8.06
2018-03-08T10:16:59.210Z,8.22
2018-03-08T10:19:27.517Z,8.54
2018-03-08T10:21:55.892Z,8.34
2018-03-08T10:24:24.231Z,8.40
2018-03-08T10:26:52.615Z,8.50
2018-03-08T10:29:20.948Z,8.72
2018-03-08T10:31:49.343Z,9.05
2018-03-08T10:34:17.651Z,9.15
2018-03-08T10:36:45.983Z,9.13
2018-03-08T10:44:11.066Z,8.58
2018-03-08T10:46:39.406Z,8.63
2018-03-08T10:49:07.723Z,8.60
2018-03-08T10:51:36.054Z,8.91
2018-03-08T10:54:04.469Z,8.79
2018-03-08T10:56:32.846Z,8.27
2018-03-08T10:59:01.182Z,8.33
2018-03-08T11:01:39.415Z,8.35
2018-03-08T11:04:13.318Z,8.63
2018-03-08T11:06:41.623Z,8.39
2018-03-08T11:09:09.991Z,8.52
2018-03-08T11:11:38.343Z,8.58
2018-03-08T11:14:06.675Z,8.77
2018-03-08T11:16:35.027Z,8.76
2018-03-08T11:19:03.357Z,9.72
2018-03-08T11:21:31.662Z,9.47
2018-03-08T11:23:59.991Z,9.60
2018-03-08T11:26:28.369Z,9.34
2018-03-08T11:28:56.714Z,9.39
2018-03-08T11:31:25.029Z,8.99
2018-03-08T11:33:53.390Z,9.26
2018-03-08T11:36:21.692Z,9.44
2018-03-08T11:38:50.123Z,9.41
2018-03-08T11:41:18.430Z,8.92
2018-03-08T11:43:46.768Z,9.82
2018-03-08T11:46:15.170Z,9.79
2018-03-08T11:48:43.499Z,9.14
2018-03-08T11:51:11.823Z,9.95
2018-03-08T11:53:40.183Z,11.30
2018-03-08T11:56:08.490Z,10.65
2018-03-08T11:58:36.867Z,10.28
2018-03-08T12:01:05.339Z,10.71
2018-03-08T12:03:33.659Z,10.42
2018-03-08T12:06:02.086Z,12.28
2018-03-08T12:08:30.397Z,13.46
2018-03-08T12:10:58.750Z,12.80
2018-03-08T12:13:27.158Z,11.46
2018-03-08T12:15:55.533Z,14.80
2018-03-08T12:18:23.832Z,15.43
2018-03-08T12:20:52.220Z,17.11
2018-03-08T12:23:20.630Z,15.29
2018-03-08T12:25:48.963Z,17.51
2018-03-08T12:28:17.270Z,17.23
2018-03-08T12:30:45.658Z,16.46
2018-03-08T12:33:14.047Z,13.91
2018-03-08T12:35:42.459Z,12.48
2018-03-08T12:38:10.761Z,11.83
2018-03-08T12:40:39.179Z,11.55
2018-03-08T12:43:08.272Z,12.06
2018-03-08T12:45:36.691Z,11.44
2018-03-08T12:48:05.027Z,13.15
2018-03-08T12:50:33.347Z,15.24
2018-03-08T12:53:01.786Z,15.04
2018-03-08T12:55:30.206Z,12.72
2018-03-08T12:57:58.644Z,13.15
2018-03-08T13:00:27.024Z,12.63
2018-03-08T13:02:55.358Z,13.99
2018-03-08T13:05:23.769Z,12.81
2018-03-08T13:07:52.123Z,13.07
2018-03-08T13:10:20.436Z,13.71
2018-03-08T13:12:48.851Z,14.15
2018-03-08T13:15:17.167Z,13.60
2018-03-08T13:17:45.571Z,14.86
2018-03-08T13:20:13.960Z,14.67
2018-03-08T13:22:42.390Z,14.11
2018-03-08T13:25:10.743Z,14.79
2018-03-08T13:27:39.070Z,15.89
2018-03-08T13:30:07.394Z,16.58
2018-03-08T13:32:35.725Z,18.11
2018-03-08T13:35:04.038Z,16.07
2018-03-08T13:37:32.378Z,18.76
2018-03-08T13:40:00.706Z,19.19
2018-03-08T13:42:29.949Z,20.50
2018-03-08T13:44:58.266Z,20.92
2018-03-08T13:47:26.610Z,21.77
2018-03-08T13:49:54.948Z,19.15
2018-03-08T13:52:23.307Z,22.29
2018-03-08T13:54:51.693Z,21.61
2018-03-08T13:57:20.043Z,21.25
2018-03-08T13:59:48.418Z,20.46
2018-03-08T14:02:16.772Z,21.57
2018-03-08T14:04:45.074Z,23.01
2018-03-08T14:07:13.394Z,22.48
2018-03-08T14:09:41.725Z,23.96
2018-03-08T14:12:10.073Z,24.60
2018-03-08T14:14:38.403Z,21.46
2018-03-08T14:17:06.754Z,22.17
2018-03-08T14:19:35.170Z,20.31
2018-03-08T14:22:03.818Z,20.71
2018-03-08T14:24:32.213Z,23.06
2018-03-08T14:27:00.539Z,21.62
2018-03-08T14:29:28.931Z,20.77
2018-03-08T14:31:57.297Z,19.60
2018-03-08T14:34:25.644Z,21.56
2018-03-08T14:36:53.955Z,21.14
2018-03-08T14:39:22.319Z,20.69
2018-03-08T14:41:50.647Z,16.57
2018-03-08T14:44:19.035Z,15.40
2018-03-08T14:46:47.345Z,15.42
2018-03-08T14:49:15.669Z,14.59
2018-03-08T14:51:44.007Z,13.97
2018-03-08T14:54:12.365Z,13.22
2018-03-08T14:56:40.742Z,13.02
2018-03-08T14:59:09.053Z,12.52
2018-03-08T15:01:37.475Z,12.97
2018-03-08T15:04:05.790Z,13.56
2018-03-08T15:06:34.122Z,13.00
2018-03-08T15:09:02.459Z,13.03
2018-03-08T15:11:30.870Z,13.67
2018-03-08T15:13:59.176Z,14.07
2018-03-08T15:16:28.137Z,14.33
2018-03-08T15:18:56.420Z,12.89
2018-03-08T15:21:24.759Z,12.51
2018-03-08T15:23:53.208Z,12.96
2018-03-08T15:26:21.596Z,12.75
2018-03-08T15:28:49.961Z,12.74
2018-03-08T15:31:18.311Z,12.59
2018-03-08T15:33:46.725Z,12.25
2018-03-08T15:36:15.182Z,11.71
2018-03-08T15:38:43.489Z,11.61
2018-03-08T15:41:11.826Z,11.79
2018-03-08T15:43:40.145Z,11.73
2018-03-08T15:46:08.598Z,12.08
2018-03-08T15:48:36.912Z,12.58
2018-03-08T15:51:06.273Z,12.21
2018-03-08T15:53:34.610Z,11.87
2018-03-08T15:56:02.920Z,11.61
2018-03-08T15:58:31.276Z,11.57
2018-03-08T16:00:59.707Z,11.32
2018-03-08T16:03:28.089Z,11.19
2018-03-08T16:05:56.460Z,11.45
2018-03-08T16:08:31.440Z,11.36
2018-03-08T16:10:59.836Z,11.43
2018-03-08T16:13:28.254Z,11.28
2018-03-08T16:15:56.634Z,11.19
2018-03-08T16:18:24.977Z,11.16
2018-03-08T16:20:53.366Z,10.95
2018-03-08T16:23:21.766Z,10.93
2018-03-08T16:25:50.091Z,10.80
2018-03-08T16:28:18.483Z,10.72
2018-03-08T16:30:46.901Z,10.66
2018-03-08T16:33:15.276Z,10.47
2018-03-08T16:35:43.647Z,10.55
2018-03-08T16:38:11.951Z,10.40
2018-03-08T16:40:40.327Z,10.41
2018-03-08T16:43:08.689Z,10.18
2018-03-08T16:45:37.030Z,10.20
2018-03-08T16:48:05.354Z,10.19
2018-03-08T16:50:34.564Z,10.13
2018-03-08T16:53:02.870Z,10.00
2018-03-08T16:55:31.226Z,9.92
2018-03-08T16:57:59.534Z,9.85
2018-03-08T17:00:27.908Z,9.77
2018-03-08T17:02:56.341Z,9.62
2018-03-08T17:05:24.695Z,9.47
2018-03-08T17:07:52.985Z,9.30
2018-03-08T17:10:21.573Z,9.13
2018-03-08T17:12:49.916Z,9.09
2018-03-08T17:15:18.325Z,9.16
2018-03-08T17:17:46.631Z,9.01
2018-03-08T17:20:14.979Z,8.93
2018-03-08T17:22:43.285Z,8.92
2018-03-08T17:25:11.591Z,8.91
2018-03-08T17:27:39.970Z,8.82
2018-03-08T17:30:08.354Z,8.92
2018-03-08T17:32:36.695Z,8.53
2018-03-08T17:35:05.044Z,8.50
2018-03-08T17:37:33.376Z,8.93
2018-03-08T17:40:01.708Z,8.82
2018-03-08T17:42:30.097Z,8.78
2018-03-08T17:44:58.425Z,8.62
2018-03-08T17:47:26.763Z,8.42
2018-03-08T17:49:55.063Z,8.36
2018-03-08T17:52:23.402Z,8.34
2018-03-08T17:54:51.711Z,8.22
2018-03-08T17:57:20.051Z,8.13
2018-03-08T17:59:48.405Z,8.18
2018-03-08T18:02:16.710Z,8.19
2018-03-08T18:04:45.073Z,8.22
2018-03-08T18:07:13.397Z,8.21
2018-03-08T18:09:42.158Z,8.19
2018-03-08T18:12:10.584Z,8.19
2018-03-08T18:14:38.976Z,8.07
2018-03-08T18:17:07.472Z,7.82
2018-03-08T18:19:35.780Z,7.78
2018-03-08T18:22:04.200Z,7.89
2018-03-08T18:24:32.514Z,8.23
2018-03-08T18:27:00.859Z,8.26
2018-03-08T18:29:29.203Z,8.34
2018-03-08T18:31:57.611Z,8.05
2018-03-08T18:34:25.987Z,8.08
2018-03-08T18:36:54.404Z,8.18
2018-03-08T18:39:22.778Z,7.96
2018-03-08T18:41:51.164Z,8.20
2018-03-08T18:44:19.494Z,8.10
2018-03-08T18:46:47.878Z,8.25
2018-03-08T18:49:16.215Z,7.97
2018-03-08T18:51:44.626Z,8.26
2018-03-08T18:54:12.966Z,8.09
2018-03-08T18:56:41.280Z,8.14
2018-03-08T18:59:09.600Z,8.25
2018-03-08T19:01:37.911Z,7.98
2018-03-08T19:04:06.244Z,7.92
2018-03-08T19:06:34.595Z,7.97
2018-03-08T19:09:02.927Z,7.88
2018-03-08T19:11:31.251Z,7.73
2018-03-08T19:13:59.615Z,7.62
2018-03-08T19:16:27.915Z,7.58
2018-03-08T19:18:56.271Z,7.52
2018-03-08T19:21:24.578Z,7.49
2018-03-08T19:23:53.077Z,7.72
2018-03-08T19:26:21.406Z,7.68
2018-03-08T19:28:49.742Z,7.69
2018-03-08T19:31:18.076Z,7.65
2018-03-08T19:33:46.479Z,7.72
2018-03-08T19:36:14.864Z,7.79
2018-03-08T19:38:43.182Z,7.80
2018-03-08T19:41:11.525Z,7.75
2018-03-08T19:43:39.873Z,7.66
2018-03-08T19:46:09.043Z,7.56
2018-03-08T19:48:37.467Z,7.56
2018-03-08T19:51:05.815Z,7.43
2018-03-08T19:53:34.147Z,7.59
2018-03-08T19:56:02.571Z,7.57
2018-03-08T19:58:30.871Z,7.56
2018-03-08T20:00:59.194Z,7.63
2018-03-08T20:03:27.640Z,7.62
2018-03-08T20:05:56.020Z,7.41
2018-03-08T20:08:24.404Z,7.00
2018-03-08T20:10:52.742Z,6.98
2018-03-08T20:13:21.172Z,6.91
2018-03-08T20:15:49.498Z,7.01
2018-03-08T20:18:17.874Z,7.17
2018-03-08T20:20:46.273Z,7.43
2018-03-08T20:23:14.563Z,7.14
2018-03-08T20:25:43.014Z,7.04
2018-03-08T20:28:11.350Z,6.87
2018-03-08T20:30:39.655Z,6.85
2018-03-08T20:33:07.994Z,7.14
2018-03-08T20:35:36.355Z,7.20
2018-03-08T20:38:04.669Z,7.28
2018-03-08T20:40:33.098Z,7.51
2018-03-08T20:43:01.459Z,7.21
2018-03-08T20:45:29.784Z,7.03
2018-03-08T20:47:58.131Z,6.81
2018-03-08T20:50:26.474Z,6.82
2018-03-08T20:52:54.878Z,6.82
2018-03-08T20:55:23.294Z,6.82
2018-03-08T20:57:51.660Z,6.71
2018-03-08T21:00:19.972Z,6.88
2018-03-08T21:02:48.377Z,6.86
2018-03-08T21:05:16.691Z,6.85
2018-03-08T21:07:45.134Z,6.70
2018-03-08T21:10:13.514Z,6.69
2018-03-08T21:12:41.847Z,6.61
2018-03-08T21:15:10.192Z,6.61
2018-03-08T21:17:38.534Z,6.64
2018-03-08T21:20:06.843Z,6.47
2018-03-08T21:22:35.209Z,6.53
2018-03-08T21:25:03.530Z,6.48
2018-03-08T21:27:31.839Z,6.80
2018-03-08T21:30:00.259Z,6.68
2018-03-08T21:32:28.582Z,6.64
2018-03-08T21:34:56.969Z,6.64
2018-03-08T21:37:25.308Z,6.76
2018-03-08T21:39:53.629Z,6.99
2018-03-08T21:42:21.942Z,6.83
2018-03-08T21:44:51.201Z,6.98
2018-03-08T21:47:19.560Z,7.06
2018-03-08T21:49:47.852Z,7.30
2018-03-08T21:52:16.191Z,7.27
2018-03-08T21:54:44.517Z,7.29
2018-03-08T21:57:12.907Z,7.29
2018-03-08T21:59:41.320Z,7.32
2018-03-08T22:02:09.662Z,7.38
2018-03-08T22:04:37.980Z,7.20
2018-03-08T22:07:06.353Z,7.22
2018-03-08T22:09:34.694Z,7.31
2018-03-08T22:12:03.046Z,7.27
2018-03-08T22:14:31.567Z,7.32
2018-03-08T22:16:59.860Z,7.40
2018-03-08T22:19:28.167Z,7.29
2018-03-08T22:21:56.471Z,7.33
2018-03-08T22:24:24.879Z,7.34
2018-03-08T22:26:53.258Z,7.30
2018-03-08T22:29:21.622Z,7.34
2018-03-08T22:31:49.997Z,7.32
2018-03-08T22:34:18.386Z,7.31
2018-03-08T22:36:46.691Z,7.31
2018-03-08T22:39:15.025Z,7.30
2018-03-08T22:41:43.338Z,7.36
2018-03-08T22:44:11.682Z,7.35
2018-03-08T22:46:39.983Z,7.34
2018-03-08T22:49:08.339Z,7.27
2018-03-08T22:51:36.674Z,7.23
2018-03-08T22:54:04.978Z,7.33
2018-03-08T22:56:33.302Z,7.26
2018-03-08T22:59:01.646Z,7.20
2018-03-08T23:04:36.957Z,7.07
2018-03-08T23:07:05.276Z,6.97
2018-03-08T23:09:35.612Z,7.07
2018-03-08T23:12:07.848Z,7.06
2018-03-08T23:14:36.258Z,7.13
2018-03-08T23:17:04.638Z,7.16
2018-03-08T23:19:32.992Z,6.99
2018-03-08T23:22:01.447Z,7.05
2018-03-08T23:24:29.764Z,7.15
2018-03-08T23:26:58.085Z,7.13
2018-03-08T23:29:26.454Z,7.08
2018-03-08T23:31:54.774Z,7.31
2018-03-08T23:34:23.102Z,7.18
2018-03-08T23:36:51.427Z,7.13
2018-03-08T23:39:19.837Z,7.16
2018-03-08T23:41:48.155Z,7.21
2018-03-08T23:44:16.466Z,7.17
2018-03-08T23:46:44.870Z,7.12
2018-03-08T23:49:13.201Z,7.20
2018-03-08T23:51:41.560Z,7.08
2018-03-08T23:54:09.891Z,7.13
2018-03-08T23:56:38.189Z,7.13
2018-03-08T23:59:06.498Z,7.09
